createdAt,value
2022-11-05T00:01:21.384Z,8.76
2022-11-05T00:03:38.765Z,8.78
2022-11-05T00:05:55.925Z,8.79
2022-11-05T00:08:12.972Z,8.81
2022-11-05T00:10:29.893Z,8.83
2022-11-05T00:12:46.962Z,8.84
2022-11-05T00:15:04.292Z,8.84
2022-11-05T00:17:24.755Z,8.82
2022-11-05T00:19:42.229Z,8.82
2022-11-05T00:22:00.804Z,8.82
2022-11-05T00:24:23.204Z,8.83
2022-11-05T00:26:42.574Z,8.83
2022-11-05T00:28:59.576Z,8.83
2022-11-05T00:31:16.893Z,8.89
2022-11-05T00:33:33.954Z,8.88
2022-11-05T00:35:50.819Z,8.89
2022-11-05T00:38:07.759Z,8.89
2022-11-05T00:40:25.227Z,8.96
2022-11-05T00:42:43.171Z,8.96
2022-11-05T00:45:00.221Z,9.00
2022-11-05T00:47:17.512Z,9.02
2022-11-05T00:49:34.988Z,9.01
2022-11-05T00:51:52.076Z,9.01
2022-11-05T00:54:09.427Z,9.03
2022-11-05T00:56:26.729Z,8.97
2022-11-05T00:58:45.059Z,8.90
2022-11-05T01:01:03.259Z,8.92
2022-11-05T01:03:21.540Z,8.89
2022-11-05T01:05:41.841Z,8.94
2022-11-05T01:07:59.168Z,8.93
2022-11-05T01:10:17.071Z,8.98
2022-11-05T01:12:34.166Z,8.93
2022-11-05T01:14:51.160Z,8.90
2022-11-05T01:17:09.549Z,8.89
2022-11-05T01:19:27.207Z,8.86
2022-11-05T01:21:44.330Z,8.83
2022-11-05T01:24:01.370Z,8.77
2022-11-05T01:26:19.227Z,8.73
2022-11-05T01:28:36.333Z,8.74
2022-11-05T01:30:54.549Z,8.70
2022-11-05T01:33:11.916Z,8.72
2022-11-05T01:35:29.254Z,8.72
2022-11-05T01:37:46.504Z,8.69
2022-11-05T01:40:04.375Z,8.65
2022-11-05T01:42:22.390Z,8.62
2022-11-05T01:44:40.380Z,8.59
2022-11-05T01:46:57.417Z,8.59
2022-11-05T01:49:14.931Z,8.57
2022-11-05T01:51:31.945Z,8.55
2022-11-05T01:53:49.192Z,8.55
2022-11-05T01:56:06.138Z,8.53
2022-11-05T01:58:23.188Z,8.52
2022-11-05T02:00:41.575Z,8.53
2022-11-05T02:02:58.971Z,8.51
2022-11-05T02:05:17.287Z,8.52
2022-11-05T02:07:35.528Z,8.49
2022-11-05T02:09:52.541Z,8.47
2022-11-05T02:12:09.815Z,8.44
2022-11-05T02:14:26.838Z,8.45
2022-11-05T02:16:44.073Z,8.40
2022-11-05T02:19:01.102Z,8.39
2022-11-05T02:21:18.251Z,8.35
2022-11-05T02:23:35.553Z,8.34
2022-11-05T02:25:52.561Z,8.32
2022-11-05T02:28:09.880Z,8.32
2022-11-05T02:30:29.153Z,8.32
2022-11-05T02:32:47.131Z,8.33
2022-11-05T02:35:04.327Z,8.41
2022-11-05T02:37:21.393Z,8.45
2022-11-05T02:39:38.733Z,8.39
2022-11-05T02:42:00.518Z,8.36
2022-11-05T02:44:20.895Z,8.33
2022-11-05T02:46:37.957Z,8.31
2022-11-05T02:48:56.215Z,8.31
2022-11-05T02:51:14.454Z,8.30
2022-11-05T02:53:31.377Z,8.28
2022-11-05T02:55:49.337Z,8.27
2022-11-05T02:58:06.393Z,8.25
2022-11-05T03:00:23.342Z,8.27
2022-11-05T03:02:40.543Z,8.28
2022-11-05T03:04:57.595Z,8.29
2022-11-05T03:07:14.844Z,8.23
2022-11-05T03:09:31.805Z,8.17
2022-11-05T03:11:48.836Z,8.12
2022-11-05T03:14:05.827Z,8.08
2022-11-05T03:16:22.793Z,7.99
2022-11-05T03:18:40.044Z,7.96
2022-11-05T03:20:57.046Z,7.92
2022-11-05T03:23:14.183Z,7.85
2022-11-05T03:25:31.289Z,7.80
2022-11-05T03:27:49.538Z,7.78
2022-11-05T03:30:06.522Z,7.75
2022-11-05T03:32:23.537Z,7.76
2022-11-05T03:34:40.398Z,7.77
2022-11-05T03:36:57.318Z,7.78
2022-11-05T03:39:14.348Z,7.76
2022-11-05T03:41:31.408Z,7.75
2022-11-05T03:43:48.367Z,7.74
2022-11-05T03:46:05.364Z,7.73
2022-11-05T03:48:22.449Z,7.71
2022-11-05T03:50:41.541Z,7.70
2022-11-05T03:52:58.777Z,7.68
2022-11-05T03:55:15.838Z,7.67
2022-11-05T03:57:33.048Z,7.67
2022-11-05T03:59:49.988Z,7.63
2022-11-05T04:02:07.294Z,7.59
2022-11-05T04:04:24.961Z,7.54
2022-11-05T04:06:41.970Z,7.47
2022-11-05T04:08:58.966Z,7.41
2022-11-05T04:11:16.275Z,7.36
2022-11-05T04:13:34.245Z,7.31
2022-11-05T04:15:51.251Z,7.27
2022-11-05T04:18:09.486Z,7.23
2022-11-05T04:20:26.498Z,7.17
2022-11-05T04:22:43.758Z,7.13
2022-11-05T04:25:00.644Z,7.09
2022-11-05T04:27:18.876Z,7.09
2022-11-05T04:29:35.868Z,7.05
2022-11-05T04:31:52.851Z,7.05
2022-11-05T04:34:10.094Z,7.01
2022-11-05T04:36:27.076Z,6.99
2022-11-05T04:38:44.105Z,6.96
2022-11-05T04:41:01.062Z,6.92
2022-11-05T04:43:18.621Z,6.89
2022-11-05T04:45:35.925Z,6.90
2022-11-05T04:47:52.894Z,6.89
2022-11-05T04:50:10.184Z,6.87
2022-11-05T04:52:28.174Z,6.87
2022-11-05T04:54:45.393Z,6.91
2022-11-05T04:57:02.438Z,6.91
2022-11-05T04:59:19.456Z,6.89
2022-11-05T05:01:37.904Z,6.90
2022-11-05T05:03:55.023Z,6.81
2022-11-05T05:06:12.210Z,6.82
2022-11-05T05:08:29.438Z,6.84
2022-11-05T05:10:47.309Z,6.81
2022-11-05T05:13:04.219Z,6.76
2022-11-05T05:15:21.481Z,6.75
2022-11-05T05:17:38.514Z,6.75
2022-11-05T05:19:55.451Z,6.71
2022-11-05T05:22:12.639Z,6.69
2022-11-05T05:24:29.865Z,6.66
2022-11-05T05:26:46.856Z,6.59
2022-11-05T05:29:04.817Z,6.54
2022-11-05T05:31:21.850Z,6.52
2022-11-05T05:33:40.035Z,6.52
2022-11-05T05:35:57.320Z,6.48
2022-11-05T05:38:14.514Z,6.43
2022-11-05T05:40:31.559Z,6.42
2022-11-05T05:42:48.622Z,6.42
2022-11-05T05:45:05.860Z,6.40
2022-11-05T05:47:22.879Z,6.39
2022-11-05T05:49:40.054Z,6.36
2022-11-05T05:51:57.245Z,6.38
2022-11-05T05:54:14.208Z,6.33
2022-11-05T05:56:31.165Z,6.37
2022-11-05T05:58:48.154Z,6.27
2022-11-05T06:01:05.023Z,6.23
2022-11-05T06:03:22.325Z,6.23
2022-11-05T06:05:39.288Z,6.19
2022-11-05T06:07:56.294Z,6.20
2022-11-05T06:10:13.557Z,6.23
2022-11-05T06:12:30.586Z,6.21
2022-11-05T06:14:47.804Z,6.13
2022-11-05T06:17:05.674Z,6.13
2022-11-05T06:19:22.678Z,6.08
2022-11-05T06:21:39.737Z,6.08
2022-11-05T06:23:56.648Z,6.16
2022-11-05T06:26:13.887Z,6.06
2022-11-05T06:28:30.763Z,6.03
2022-11-05T06:30:47.778Z,6.00
2022-11-05T06:33:04.793Z,5.98
2022-11-05T06:35:22.030Z,6.00
2022-11-05T06:37:39.011Z,6.03
2022-11-05T06:39:56.283Z,6.01
2022-11-05T06:42:20.563Z,5.96
2022-11-05T06:44:37.892Z,5.93
2022-11-05T06:46:55.063Z,5.90
2022-11-05T06:49:12.034Z,5.88
2022-11-05T06:51:30.287Z,5.99
2022-11-05T06:53:47.546Z,6.05
2022-11-05T06:56:05.458Z,5.97
2022-11-05T06:58:22.431Z,5.93
2022-11-05T07:00:39.538Z,5.91
2022-11-05T07:02:56.590Z,5.84
2022-11-05T07:05:14.864Z,5.83
2022-11-05T07:07:31.774Z,5.80
2022-11-05T07:09:48.911Z,5.81
2022-11-05T07:12:05.902Z,5.87
2022-11-05T07:14:23.099Z,5.87
2022-11-05T07:16:40.335Z,5.95
2022-11-05T07:18:57.278Z,5.90
2022-11-05T07:21:14.551Z,5.85
2022-11-05T07:23:31.751Z,5.95
2022-11-05T07:25:48.770Z,5.83
2022-11-05T07:28:05.758Z,5.78
2022-11-05T07:30:22.948Z,5.75
2022-11-05T07:32:40.054Z,5.84
2022-11-05T07:34:56.944Z,5.82
2022-11-05T07:37:13.950Z,5.82
2022-11-05T07:39:30.963Z,5.82
2022-11-05T07:41:47.989Z,5.94
2022-11-05T07:44:05.208Z,5.89
2022-11-05T07:46:22.260Z,5.92
2022-11-05T07:48:39.278Z,5.94
2022-11-05T07:50:56.512Z,6.01
2022-11-05T07:53:13.984Z,6.19
2022-11-05T07:55:32.124Z,6.31
2022-11-05T07:57:49.087Z,6.19
2022-11-05T08:00:06.126Z,6.21
2022-11-05T08:02:24.215Z,6.20
2022-11-05T08:04:41.631Z,6.18
2022-11-05T08:06:59.830Z,6.27
2022-11-05T08:09:16.906Z,6.18
2022-11-05T08:11:34.494Z,6.22
2022-11-05T08:13:52.509Z,6.25
2022-11-05T08:16:09.525Z,6.25
2022-11-05T08:18:27.391Z,6.29
2022-11-05T08:20:44.338Z,6.21
2022-11-05T08:23:02.258Z,6.25
2022-11-05T08:25:19.258Z,6.24
2022-11-05T08:27:36.245Z,6.37
2022-11-05T08:29:53.262Z,6.35
2022-11-05T08:32:10.543Z,6.40
2022-11-05T08:34:27.496Z,6.46
2022-11-05T08:36:44.733Z,6.52
2022-11-05T08:39:01.980Z,6.53
2022-11-05T08:41:19.978Z,6.58
2022-11-05T08:43:37.275Z,6.57
2022-11-05T08:45:54.279Z,6.64
2022-11-05T08:48:11.529Z,6.76
2022-11-05T08:50:28.504Z,6.94
2022-11-05T08:52:45.517Z,7.15
2022-11-05T08:55:02.543Z,7.17
2022-11-05T08:57:19.798Z,7.28
2022-11-05T08:59:37.091Z,7.31
2022-11-05T09:01:54.080Z,7.38
2022-11-05T09:04:11.199Z,7.47
2022-11-05T09:06:28.273Z,7.51
2022-11-05T09:08:45.470Z,7.50
2022-11-05T09:11:02.754Z,7.53
2022-11-05T09:13:20.419Z,7.63
2022-11-05T09:15:37.638Z,7.85
2022-11-05T09:17:54.491Z,7.94
2022-11-05T09:20:11.752Z,8.09
2022-11-05T09:22:28.768Z,8.35
2022-11-05T09:24:45.688Z,8.64
2022-11-05T09:27:02.926Z,8.88
2022-11-05T09:29:21.174Z,9.26
2022-11-05T09:31:38.188Z,9.54
2022-11-05T09:33:56.394Z,9.98
2022-11-05T09:36:13.399Z,10.21
2022-11-05T09:38:30.695Z,10.36
2022-11-05T09:40:48.614Z,10.52
2022-11-05T09:43:05.867Z,10.55
2022-11-05T09:45:23.903Z,10.59
2022-11-05T09:47:40.768Z,10.80
2022-11-05T09:49:57.681Z,10.95
2022-11-05T09:52:14.959Z,11.17
2022-11-05T09:54:32.277Z,11.27
2022-11-05T09:56:49.485Z,11.29
2022-11-05T09:59:06.522Z,11.19
2022-11-05T10:01:24.898Z,10.97
2022-11-05T10:03:43.170Z,10.69
2022-11-05T10:06:00.133Z,10.58
2022-11-05T10:08:17.168Z,10.63
2022-11-05T10:10:40.300Z,10.75
2022-11-05T10:12:58.271Z,10.98
2022-11-05T10:15:16.517Z,11.22
2022-11-05T10:17:38.724Z,11.46
2022-11-05T10:19:56.193Z,11.82
2022-11-05T10:22:13.116Z,11.92
2022-11-05T10:24:31.161Z,11.96
2022-11-05T10:26:48.437Z,11.97
2022-11-05T10:29:06.433Z,11.85
2022-11-05T10:31:23.403Z,11.56
2022-11-05T10:33:40.660Z,11.33
2022-11-05T10:35:57.622Z,11.13
2022-11-05T10:38:14.864Z,11.13
2022-11-05T10:40:33.157Z,11.13
2022-11-05T10:42:50.233Z,11.20
2022-11-05T10:45:07.275Z,11.28
2022-11-05T10:47:24.254Z,11.28
2022-11-05T10:49:41.542Z,11.24
2022-11-05T10:51:58.515Z,11.17
2022-11-05T10:54:15.838Z,11.15
2022-11-05T10:56:32.857Z,11.17
2022-11-05T10:58:50.089Z,11.14
2022-11-05T11:01:07.170Z,11.13
2022-11-05T11:03:24.156Z,11.07
2022-11-05T11:05:41.357Z,10.96
2022-11-05T11:07:58.653Z,10.97
2022-11-05T11:10:16.034Z,10.84
2022-11-05T11:12:38.201Z,10.85
2022-11-05T11:14:57.955Z,10.75
2022-11-05T11:17:14.863Z,10.66
2022-11-05T11:19:31.932Z,10.65
2022-11-05T11:21:49.095Z,10.62
2022-11-05T11:24:07.303Z,10.57
2022-11-05T11:26:24.355Z,10.55
2022-11-05T11:28:41.607Z,10.49
2022-11-05T11:30:58.889Z,10.47
2022-11-05T11:33:15.887Z,10.54
2022-11-05T11:35:32.939Z,10.49
2022-11-05T11:37:49.936Z,10.49
2022-11-05T11:40:10.019Z,10.51
2022-11-05T11:42:28.025Z,10.48
2022-11-05T11:44:45.332Z,10.47
2022-11-05T11:47:02.576Z,10.46
2022-11-05T11:49:19.617Z,10.50
2022-11-05T11:51:36.946Z,10.48
2022-11-05T11:53:53.884Z,10.48
2022-11-05T11:56:10.948Z,10.47
2022-11-05T11:58:27.949Z,10.50
2022-11-05T12:00:45.161Z,10.58
2022-11-05T12:03:02.428Z,10.67
2022-11-05T12:05:20.462Z,10.75
2022-11-05T12:07:37.404Z,10.85
2022-11-05T12:09:55.640Z,10.92
2022-11-05T12:12:12.892Z,10.93
2022-11-05T12:14:29.945Z,11.03
2022-11-05T12:16:46.927Z,11.25
2022-11-05T12:19:04.189Z,11.38
2022-11-05T12:21:47.694Z,11.46
2022-11-05T12:23:59.237Z,11.55
2022-11-05T12:26:16.475Z,11.63
2022-11-05T12:28:36.049Z,11.59
2022-11-05T12:30:53.592Z,11.60
2022-11-05T12:33:11.030Z,11.63
2022-11-05T12:35:28.321Z,11.61
2022-11-05T12:37:45.833Z,11.73
2022-11-05T12:40:05.883Z,11.67
2022-11-05T12:42:23.160Z,11.65
2022-11-05T12:44:40.169Z,11.49
2022-11-05T12:46:57.186Z,11.35
2022-11-05T12:49:14.508Z,11.23
2022-11-05T12:51:31.540Z,11.18
2022-11-05T12:53:49.725Z,11.13
2022-11-05T12:56:06.718Z,11.16
2022-11-05T12:58:24.001Z,11.10
2022-11-05T13:00:41.247Z,11.04
2022-11-05T13:02:58.935Z,10.99
2022-11-05T13:05:16.214Z,10.89
2022-11-05T13:07:34.514Z,10.85
2022-11-05T13:09:51.526Z,10.87
2022-11-05T13:12:08.739Z,10.90
2022-11-05T13:14:26.033Z,10.90
2022-11-05T13:16:43.286Z,10.96
2022-11-05T13:19:00.472Z,10.98
2022-11-05T13:21:18.787Z,10.98
2022-11-05T13:23:35.757Z,10.90
2022-11-05T13:25:54.328Z,10.88
2022-11-05T13:28:11.242Z,10.92
2022-11-05T13:30:28.695Z,10.92
2022-11-05T13:32:45.970Z,10.93
2022-11-05T13:35:03.009Z,10.89
2022-11-05T13:37:20.256Z,10.88
2022-11-05T13:39:37.451Z,10.93
2022-11-05T13:41:54.443Z,10.94
2022-11-05T13:44:11.464Z,10.89
2022-11-05T13:46:28.417Z,10.86
2022-11-05T13:48:46.456Z,10.90
2022-11-05T13:51:03.638Z,10.92
2022-11-05T13:53:20.726Z,10.94
2022-11-05T13:55:37.873Z,10.96
2022-11-05T13:57:54.947Z,11.01
2022-11-05T14:00:13.200Z,11.05
2022-11-05T14:02:30.577Z,11.08
2022-11-05T14:04:47.730Z,11.09
2022-11-05T14:07:04.660Z,11.13
2022-11-05T14:09:21.678Z,11.13
2022-11-05T14:11:38.717Z,11.18
2022-11-05T14:13:55.738Z,11.16
2022-11-05T14:16:12.787Z,11.12
2022-11-05T14:18:29.756Z,11.18
2022-11-05T14:20:47.027Z,11.16
2022-11-05T14:23:09.582Z,11.16
2022-11-05T14:25:27.810Z,11.22
2022-11-05T14:27:44.945Z,11.16
2022-11-05T14:30:02.875Z,11.16
2022-11-05T14:32:20.229Z,11.21
2022-11-05T14:34:37.202Z,11.17
2022-11-05T14:36:54.156Z,11.11
2022-11-05T14:39:11.418Z,11.09
2022-11-05T14:41:28.635Z,11.13
2022-11-05T14:43:45.572Z,11.08
2022-11-05T14:46:03.623Z,10.97
2022-11-05T14:48:20.605Z,10.91
2022-11-05T14:50:38.687Z,10.82
2022-11-05T14:52:55.938Z,10.69
2022-11-05T14:55:12.943Z,10.60
2022-11-05T14:57:30.848Z,10.61
2022-11-05T14:59:47.839Z,10.54
2022-11-05T15:02:04.827Z,10.49
2022-11-05T15:04:22.243Z,10.38
2022-11-05T15:06:39.305Z,10.33
2022-11-05T15:08:56.635Z,10.25
2022-11-05T15:11:13.626Z,10.23
2022-11-05T15:13:30.571Z,10.10
2022-11-05T15:15:47.791Z,10.02
2022-11-05T15:18:04.842Z,9.95
2022-11-05T15:20:22.126Z,9.87
2022-11-05T15:22:39.032Z,9.84
2022-11-05T15:24:56.290Z,9.83
2022-11-05T15:27:13.533Z,9.76
2022-11-05T15:29:30.505Z,9.73
2022-11-05T15:31:47.832Z,9.67
2022-11-05T15:34:06.135Z,9.67
2022-11-05T15:36:23.150Z,9.57
2022-11-05T15:38:40.056Z,9.59
2022-11-05T15:40:57.036Z,9.51
2022-11-05T15:43:14.960Z,9.49
2022-11-05T15:45:32.199Z,9.42
2022-11-05T15:47:49.148Z,9.41
2022-11-05T15:50:11.455Z,9.34
2022-11-05T15:52:31.091Z,9.31
2022-11-05T15:54:49.087Z,9.27
2022-11-05T15:57:06.424Z,9.22
2022-11-05T15:59:23.787Z,9.19
2022-11-05T16:01:40.933Z,9.13
2022-11-05T16:03:58.294Z,9.08
2022-11-05T16:06:15.300Z,9.06
2022-11-05T16:08:32.402Z,8.99
2022-11-05T16:10:49.456Z,8.93
2022-11-05T16:13:06.766Z,8.90
2022-11-05T16:15:24.019Z,8.89
2022-11-05T16:17:54.457Z,8.83
2022-11-05T16:20:12.080Z,8.78
2022-11-05T16:22:29.772Z,8.76
2022-11-05T16:24:47.189Z,8.72
2022-11-05T16:27:04.363Z,8.67
2022-11-05T16:29:22.795Z,8.65
2022-11-05T16:31:40.021Z,8.64
2022-11-05T16:33:56.934Z,8.59
2022-11-05T16:36:14.238Z,8.56
2022-11-05T16:38:31.239Z,8.53
2022-11-05T16:40:48.278Z,8.46
2022-11-05T16:43:05.556Z,8.51
2022-11-05T16:45:22.645Z,8.46
2022-11-05T16:47:39.865Z,8.39
2022-11-05T16:49:57.153Z,8.36
2022-11-05T16:52:14.074Z,8.39
2022-11-05T16:54:31.283Z,8.36
2022-11-05T16:56:48.217Z,8.35
2022-11-05T16:59:05.224Z,8.34
2022-11-05T17:01:22.590Z,8.29
2022-11-05T17:03:39.983Z,8.23
2022-11-05T17:05:57.052Z,8.23
2022-11-05T17:08:15.349Z,8.24
2022-11-05T17:10:32.567Z,8.20
2022-11-05T17:12:50.534Z,8.14
2022-11-05T17:15:08.503Z,8.08
2022-11-05T17:17:25.575Z,8.07
2022-11-05T17:19:42.803Z,7.94
2022-11-05T17:21:59.641Z,7.89
2022-11-05T17:24:16.617Z,7.84
2022-11-05T17:26:33.621Z,7.77
2022-11-05T17:28:50.673Z,7.71
2022-11-05T17:31:08.712Z,7.67
2022-11-05T17:33:26.085Z,7.64
2022-11-05T17:35:43.422Z,7.58
2022-11-05T17:38:00.361Z,7.54
2022-11-05T17:40:17.573Z,7.48
2022-11-05T17:42:34.752Z,7.40
2022-11-05T17:44:51.747Z,7.32
2022-11-05T17:47:09.080Z,7.25
2022-11-05T17:49:26.283Z,7.22
2022-11-05T17:51:43.192Z,7.20
2022-11-05T17:54:01.055Z,7.14
2022-11-05T17:56:27.232Z,7.09
2022-11-05T17:58:49.293Z,7.02
2022-11-05T18:01:06.623Z,6.95
2022-11-05T18:03:23.730Z,6.88
2022-11-05T18:05:41.764Z,6.88
2022-11-05T18:07:58.798Z,6.83
2022-11-05T18:10:16.558Z,6.80
2022-11-05T18:12:33.555Z,6.80
2022-11-05T18:14:50.843Z,6.76
2022-11-05T18:17:07.713Z,6.71
2022-11-05T18:19:25.796Z,6.64
2022-11-05T18:21:42.874Z,6.62
2022-11-05T18:23:59.924Z,6.58
2022-11-05T18:26:16.854Z,6.53
2022-11-05T18:28:33.881Z,6.50
2022-11-05T18:30:51.165Z,6.48
2022-11-05T18:33:09.401Z,6.44
2022-11-05T18:35:26.622Z,6.39
2022-11-05T18:37:44.166Z,6.34
2022-11-05T18:40:01.504Z,6.32
2022-11-05T18:42:19.777Z,6.29
2022-11-05T18:44:39.449Z,6.23
2022-11-05T18:46:58.861Z,6.16
2022-11-05T18:49:16.035Z,6.15
2022-11-05T18:51:33.093Z,6.10
2022-11-05T18:53:50.394Z,6.05
2022-11-05T18:56:07.520Z,6.00
2022-11-05T18:58:24.501Z,5.98
2022-11-05T19:00:41.808Z,5.95
2022-11-05T19:02:59.143Z,5.89
2022-11-05T19:05:32.422Z,5.84
2022-11-05T19:07:49.876Z,5.82
2022-11-05T19:10:06.918Z,5.81
2022-11-05T19:12:23.975Z,5.83
2022-11-05T19:14:40.931Z,5.83
2022-11-05T19:16:58.280Z,5.79
2022-11-05T19:19:15.199Z,5.72
2022-11-05T19:21:33.287Z,5.70
2022-11-05T19:23:50.520Z,5.65
2022-11-05T19:26:07.870Z,5.64
2022-11-05T19:28:24.843Z,5.61
2022-11-05T19:30:42.088Z,5.59
2022-11-05T19:32:59.393Z,5.59
2022-11-05T19:35:16.607Z,5.61
2022-11-05T19:37:33.651Z,5.64
2022-11-05T19:39:50.590Z,5.59
2022-11-05T19:42:07.831Z,5.53
2022-11-05T19:44:24.803Z,5.53
2022-11-05T19:46:42.816Z,5.57
2022-11-05T19:48:59.914Z,5.57
2022-11-05T19:51:17.221Z,5.62
2022-11-05T19:53:35.144Z,5.61
2022-11-05T19:55:52.231Z,5.64
2022-11-05T19:58:10.491Z,5.65
2022-11-05T20:00:28.006Z,5.64
2022-11-05T20:02:45.156Z,5.64
2022-11-05T20:05:02.284Z,5.67
2022-11-05T20:07:19.356Z,5.70
2022-11-05T20:09:37.609Z,5.75
2022-11-05T20:11:54.955Z,5.83
2022-11-05T20:14:11.966Z,5.88
2022-11-05T20:16:29.231Z,5.87
2022-11-05T20:18:47.182Z,5.89
2022-11-05T20:21:04.146Z,5.95
2022-11-05T20:23:21.078Z,5.93
2022-11-05T20:25:39.493Z,5.93
2022-11-05T20:27:56.831Z,5.91
2022-11-05T20:30:13.882Z,5.94
2022-11-05T20:32:30.955Z,5.96
2022-11-05T20:34:48.207Z,6.04
2022-11-05T20:37:05.442Z,6.07
2022-11-05T20:39:22.379Z,6.08
2022-11-05T20:41:39.294Z,6.04
2022-11-05T20:43:57.314Z,6.00
2022-11-05T20:46:14.331Z,5.99
2022-11-05T20:48:31.617Z,5.96
2022-11-05T20:50:48.591Z,5.96
2022-11-05T20:53:05.522Z,5.93
2022-11-05T20:55:23.813Z,5.95
2022-11-05T20:57:40.887Z,5.99
2022-11-05T20:59:58.179Z,6.00
2022-11-05T21:02:16.320Z,6.04
2022-11-05T21:04:33.668Z,6.06
2022-11-05T21:06:50.645Z,6.05
2022-11-05T21:09:07.681Z,6.03
2022-11-05T21:11:24.616Z,6.04
2022-11-05T21:13:41.607Z,6.08
2022-11-05T21:15:58.654Z,6.11
2022-11-05T21:18:15.541Z,6.16
2022-11-05T21:20:32.979Z,6.18
2022-11-05T21:22:51.061Z,6.21
2022-11-05T21:25:08.284Z,6.23
2022-11-05T21:27:26.233Z,6.22
2022-11-05T21:29:43.519Z,6.22
2022-11-05T21:32:00.798Z,6.23
2022-11-05T21:34:17.828Z,6.25
2022-11-05T21:36:36.010Z,6.25
2022-11-05T21:38:52.973Z,6.25
2022-11-05T21:41:09.943Z,6.28
2022-11-05T21:43:26.940Z,6.25
2022-11-05T21:45:43.923Z,6.22
2022-11-05T21:48:01.215Z,6.24
2022-11-05T21:50:21.778Z,6.25
2022-11-05T21:52:39.439Z,6.25
2022-11-05T21:54:56.456Z,6.25
2022-11-05T21:57:13.701Z,6.34
2022-11-05T21:59:30.760Z,6.40
2022-11-05T22:01:48.008Z,6.39
2022-11-05T22:04:05.239Z,6.31
2022-11-05T22:06:22.328Z,6.28
2022-11-05T22:08:39.582Z,6.27
2022-11-05T22:10:56.603Z,6.27
2022-11-05T22:13:13.548Z,6.25
2022-11-05T22:15:30.528Z,6.25
2022-11-05T22:17:48.412Z,6.26
2022-11-05T22:20:05.417Z,6.26
2022-11-05T22:22:22.435Z,6.25
2022-11-05T22:24:39.684Z,6.24
2022-11-05T22:26:56.955Z,6.19
2022-11-05T22:29:15.199Z,6.13
2022-11-05T22:31:36.162Z,6.12
2022-11-05T22:33:53.769Z,6.03
2022-11-05T22:36:11.063Z,5.99
2022-11-05T22:38:28.356Z,5.97
2022-11-05T22:40:45.481Z,5.93
2022-11-05T22:43:02.578Z,5.86
2022-11-05T22:45:19.836Z,5.81
2022-11-05T22:47:37.167Z,5.73
2022-11-05T22:49:56.942Z,5.68
2022-11-05T22:52:14.413Z,5.64
2022-11-05T22:54:36.390Z,5.65
2022-11-05T22:56:56.099Z,5.66
2022-11-05T22:59:15.159Z,5.66
2022-11-05T23:01:32.332Z,5.66
2022-11-05T23:03:49.526Z,5.64
2022-11-05T23:06:13.780Z,5.63
2022-11-05T23:08:31.216Z,5.62
2022-11-05T23:10:48.218Z,5.63
2022-11-05T23:13:06.436Z,5.62
2022-11-05T23:15:24.430Z,5.61
2022-11-05T23:17:41.519Z,5.53
2022-11-05T23:20:01.970Z,5.53
2022-11-05T23:22:19.391Z,5.42
2022-11-05T23:24:36.859Z,5.35
2022-11-05T23:26:54.269Z,5.38
2022-11-05T23:29:12.434Z,5.29
2022-11-05T23:31:29.512Z,5.19
2022-11-05T23:33:48.270Z,5.16
2022-11-05T23:36:05.714Z,5.09
2022-11-05T23:38:22.802Z,5.05
2022-11-05T23:40:40.940Z,4.99
2022-11-05T23:42:58.080Z,4.96
2022-11-05T23:45:15.164Z,4.97
2022-11-05T23:47:32.505Z,5.00
2022-11-05T23:49:52.118Z,4.97
2022-11-05T23:52:09.122Z,4.99
2022-11-05T23:54:26.178Z,5.03
2022-11-05T23:56:44.544Z,5.06
2022-11-05T23:59:01.595Z,5.13
